createdAt,value
2019-01-10T00:00:48.713Z,1.30
2019-01-10T00:11:58.990Z,1.30
2019-01-10T00:14:28.028Z,1.20
2019-01-10T00:16:57.111Z,1.10
2019-01-10T00:19:45.257Z,1.00
2019-01-10T00:22:14.397Z,1.00
2019-01-10T00:25:02.508Z,0.90
2019-01-10T00:27:31.585Z,0.80
2019-01-10T00:30:19.741Z,0.70
2019-01-10T00:33:07.929Z,0.60
2019-01-10T00:35:56.153Z,0.60
2019-01-10T00:38:44.339Z,0.50
2019-01-10T00:41:32.520Z,0.40
2019-01-10T00:44:20.717Z,0.30
2019-01-10T00:46:49.765Z,0.20
2019-01-10T00:49:37.921Z,0.10
2019-01-10T00:52:26.119Z,0.00
2019-01-10T00:55:14.308Z,-0.10
2019-01-10T00:58:02.472Z,-0.10
2019-01-10T01:00:50.680Z,-0.20
2019-01-10T01:03:19.736Z,-0.30
2019-01-10T01:06:07.905Z,-0.30
2019-01-10T01:08:56.099Z,-0.40
2019-01-10T01:11:44.260Z,-0.40
2019-01-10T01:14:25.209Z,-0.40
2019-01-10T01:17:06.385Z,-0.50
2019-01-10T01:19:47.336Z,-0.50
2019-01-10T01:22:28.315Z,-0.40
2019-01-10T01:25:08.805Z,-0.40
2019-01-10T01:27:37.984Z,-0.40
2019-01-10T01:33:20.193Z,-0.40
2019-01-10T01:35:49.341Z,-0.40
2019-01-10T01:38:18.494Z,-0.40
2019-01-10T01:41:06.691Z,-0.40
2019-01-10T01:43:54.992Z,-0.40
2019-01-10T01:46:24.095Z,-0.40
2019-01-10T01:49:12.288Z,-0.50
2019-01-10T01:52:00.474Z,-0.50
2019-01-10T01:57:42.716Z,-0.60
2019-01-10T02:00:35.359Z,-0.60
2019-01-10T02:03:23.555Z,-0.60
2019-01-10T02:09:06.553Z,-0.60
2019-01-10T02:11:54.725Z,-0.60
2019-01-10T02:14:35.922Z,-0.70
2019-01-10T02:17:16.738Z,-0.70
2019-01-10T02:19:45.713Z,-0.70
2019-01-10T02:22:34.036Z,-0.70
2019-01-10T02:25:22.240Z,-0.70
2019-01-10T02:28:10.592Z,-0.70
2019-01-10T02:30:58.953Z,-0.70
2019-01-10T02:33:28.080Z,-0.70
2019-01-10T02:39:23.587Z,-0.80
2019-01-10T02:42:11.799Z,-0.80
2019-01-10T02:44:41.004Z,-0.80
2019-01-10T02:47:29.176Z,-0.90
2019-01-10T02:50:40.261Z,-0.90
2019-01-10T02:53:09.492Z,-0.90
2019-01-10T02:55:57.838Z,-0.90
2019-01-10T02:58:46.388Z,-0.90
2019-01-10T03:01:34.640Z,-0.90
2019-01-10T03:04:23.043Z,-0.90
2019-01-10T03:07:11.570Z,-0.90
2019-01-10T03:10:00.166Z,-0.90
2019-01-10T03:12:48.422Z,-0.90
2019-01-10T03:15:18.153Z,-0.80
2019-01-10T03:18:06.582Z,-0.90
2019-01-10T03:21:15.473Z,-0.90
2019-01-10T03:23:45.065Z,-0.80
2019-01-10T03:26:14.295Z,-0.80
2019-01-10T03:28:43.433Z,-0.80
2019-01-10T03:31:12.740Z,-0.80
2019-01-10T03:33:42.126Z,-0.90
2019-01-10T03:36:11.435Z,-0.90
2019-01-10T03:38:40.872Z,-0.90
2019-01-10T03:41:10.066Z,-0.90
2019-01-10T03:43:46.794Z,-1.00
2019-01-10T03:46:10.376Z,-1.00
2019-01-10T03:48:39.578Z,-1.00
2019-01-10T03:51:09.103Z,-1.00
2019-01-10T03:53:38.265Z,-1.00
2019-01-10T03:56:07.484Z,-1.00
2019-01-10T03:58:37.050Z,-1.00
2019-01-10T04:01:06.520Z,-1.00
2019-01-10T04:03:35.685Z,-1.00
2019-01-10T04:06:05.244Z,-1.00
2019-01-10T04:08:34.507Z,-1.00
2019-01-10T04:11:04.115Z,-1.00
2019-01-10T04:13:33.319Z,-1.00
2019-01-10T04:16:02.789Z,-1.00
2019-01-10T04:18:32.212Z,-1.00
2019-01-10T04:21:01.381Z,-1.00
2019-01-10T04:23:30.816Z,-1.00
2019-01-10T04:26:00.178Z,-1.00
2019-01-10T04:28:29.291Z,-1.00
2019-01-10T04:30:58.546Z,-1.10
2019-01-10T04:33:27.614Z,-1.10
2019-01-10T04:36:15.776Z,-1.10
2019-01-10T04:39:20.536Z,-1.10
2019-01-10T04:41:59.592Z,-1.10
2019-01-10T04:44:47.923Z,-1.10
2019-01-10T04:47:36.108Z,-1.10
2019-01-10T04:50:24.329Z,-1.10
2019-01-10T04:53:12.506Z,-1.10
2019-01-10T04:56:00.743Z,-1.10
2019-01-10T04:58:48.817Z,-1.10
2019-01-10T05:01:37.038Z,-1.10
2019-01-10T05:04:06.085Z,-1.10
2019-01-10T05:06:54.283Z,-1.10
2019-01-10T05:09:42.877Z,-1.10
2019-01-10T05:12:31.099Z,-1.10
2019-01-10T05:15:19.282Z,-1.10
2019-01-10T05:18:08.208Z,-1.20
2019-01-10T05:20:56.483Z,-1.20
2019-01-10T05:23:44.695Z,-1.20
2019-01-10T05:26:13.690Z,-1.20
2019-01-10T05:29:01.884Z,-1.20
2019-01-10T05:31:30.990Z,-1.20
2019-01-10T05:34:19.197Z,-1.30
2019-01-10T05:37:07.346Z,-1.20
2019-01-10T05:39:55.553Z,-1.20
2019-01-10T05:45:31.385Z,-1.20
2019-01-10T05:48:19.592Z,-1.20
2019-01-10T05:54:01.900Z,-1.20
2019-01-10T05:56:50.106Z,-1.10
2019-01-10T05:59:38.327Z,-1.10
2019-01-10T06:02:26.613Z,-1.00
2019-01-10T06:05:14.842Z,-1.00
2019-01-10T06:08:03.045Z,-1.00
2019-01-10T06:10:51.296Z,-1.00
2019-01-10T06:13:21.136Z,-1.00
2019-01-10T06:15:50.891Z,-1.00
2019-01-10T06:18:23.622Z,-1.00
2019-01-10T06:21:11.843Z,-0.90
2019-01-10T06:24:00.049Z,-0.90
2019-01-10T06:26:48.217Z,-0.90
2019-01-10T06:29:36.452Z,-0.90
2019-01-10T06:32:24.643Z,-0.80
2019-01-10T06:35:12.873Z,-0.80
2019-01-10T06:38:01.044Z,-0.80
2019-01-10T06:40:49.248Z,-0.70
2019-01-10T06:43:37.469Z,-0.70
2019-01-10T06:49:00.263Z,-0.60
2019-01-10T06:51:48.563Z,-0.60
2019-01-10T06:54:36.752Z,-0.60
2019-01-10T06:57:24.956Z,-0.50
2019-01-10T07:00:14.596Z,-0.50
2019-01-10T07:03:02.813Z,-0.50
2019-01-10T07:05:51.065Z,-0.50
2019-01-10T07:08:39.289Z,-0.50
2019-01-10T07:14:34.768Z,-0.40
2019-01-10T07:17:16.016Z,-0.40
2019-01-10T07:19:46.048Z,-0.40
2019-01-10T07:22:34.245Z,-0.40
2019-01-10T07:25:22.434Z,-0.40
2019-01-10T07:28:29.977Z,-0.40
2019-01-10T07:31:37.238Z,-0.40
2019-01-10T07:34:25.386Z,-0.40
2019-01-10T07:37:13.577Z,-0.40
2019-01-10T07:40:01.777Z,-0.40
2019-01-10T07:42:50.025Z,-0.40
2019-01-10T07:45:38.221Z,-0.40
2019-01-10T07:48:26.402Z,-0.40
2019-01-10T07:51:14.584Z,-0.40
2019-01-10T07:54:02.798Z,-0.30
2019-01-10T07:56:51.140Z,-0.30
2019-01-10T07:59:39.345Z,-0.30
2019-01-10T08:02:27.558Z,-0.30
2019-01-10T08:05:15.728Z,-0.20
2019-01-10T08:10:58.242Z,-0.20
2019-01-10T08:13:46.419Z,-0.20
2019-01-10T08:22:15.040Z,0.00
2019-01-10T08:24:56.038Z,0.00
2019-01-10T08:27:36.499Z,0.00
2019-01-10T08:30:17.054Z,0.00
2019-01-10T08:32:57.640Z,0.00
2019-01-10T08:35:38.769Z,0.10
2019-01-10T08:38:07.833Z,0.10
2019-01-10T08:40:56.010Z,0.10
2019-01-10T08:43:25.113Z,0.20
2019-01-10T08:46:13.248Z,0.20
2019-01-10T08:54:36.745Z,0.50
2019-01-10T08:57:25.011Z,0.50
2019-01-10T09:00:14.705Z,0.50
2019-01-10T09:03:02.918Z,0.50
2019-01-10T09:08:20.235Z,0.60
2019-01-10T09:11:08.552Z,0.70
2019-01-10T09:13:57.285Z,0.70
2019-01-10T09:16:45.502Z,0.80
2019-01-10T09:19:26.140Z,0.80
2019-01-10T09:21:55.417Z,0.90
2019-01-10T09:24:43.603Z,0.90
2019-01-10T09:27:32.105Z,1.00
2019-01-10T09:30:21.101Z,1.00
2019-01-10T09:33:09.404Z,1.10
2019-01-10T09:35:57.645Z,1.10
2019-01-10T09:38:45.819Z,1.20
2019-01-10T09:41:33.989Z,1.20
2019-01-10T09:44:22.192Z,1.30
2019-01-10T09:47:10.411Z,1.30
2019-01-10T09:49:58.609Z,1.40
2019-01-10T09:52:47.156Z,1.40
2019-01-10T09:55:35.341Z,1.40
2019-01-10T09:58:23.520Z,1.50
2019-01-10T10:01:11.763Z,1.60
2019-01-10T10:03:59.979Z,1.60
2019-01-10T10:06:48.164Z,1.60
2019-01-10T10:09:36.437Z,1.70
2019-01-10T10:15:32.129Z,1.80
2019-01-10T10:18:20.436Z,1.90
2019-01-10T10:21:01.668Z,1.90
2019-01-10T10:23:43.084Z,1.90
2019-01-10T10:26:23.522Z,2.00
2019-01-10T10:29:04.367Z,2.10
2019-01-10T10:31:45.267Z,2.10
2019-01-10T10:34:26.013Z,2.20
2019-01-10T10:37:06.415Z,2.30
2019-01-10T10:39:47.623Z,2.40
2019-01-10T10:42:28.426Z,2.40
2019-01-10T10:45:09.763Z,2.50
2019-01-10T10:47:50.569Z,2.50
2019-01-10T10:50:31.553Z,2.30
2019-01-10T10:55:55.743Z,2.40
2019-01-10T10:58:43.941Z,2.40
2019-01-10T11:01:32.199Z,2.40
2019-01-10T11:04:20.460Z,2.50
2019-01-10T11:07:08.647Z,2.50
2019-01-10T11:09:56.829Z,2.50
2019-01-10T11:12:45.104Z,2.60
2019-01-10T11:15:33.278Z,2.70
2019-01-10T11:18:21.482Z,2.80
2019-01-10T11:21:09.664Z,2.90
2019-01-10T11:23:57.833Z,2.80
2019-01-10T11:26:46.041Z,3.00
2019-01-10T11:29:34.273Z,3.00
2019-01-10T11:32:22.366Z,3.30
2019-01-10T11:34:51.416Z,3.40
2019-01-10T11:37:39.596Z,3.30
2019-01-10T11:40:27.780Z,3.50
2019-01-10T11:46:23.225Z,3.60
2019-01-10T11:57:53.912Z,4.00
2019-01-10T12:00:42.090Z,4.00
2019-01-10T12:06:37.555Z,4.10
2019-01-10T12:12:33.005Z,4.20
2019-01-10T12:15:21.188Z,4.10
2019-01-10T12:18:02.072Z,4.10
2019-01-10T12:20:43.205Z,4.00
2019-01-10T12:23:24.135Z,3.90
2019-01-10T12:26:04.588Z,3.80
2019-01-10T12:28:44.936Z,3.80
2019-01-10T12:31:25.885Z,3.70
2019-01-10T12:34:06.269Z,3.70
2019-01-10T12:36:46.890Z,3.70
2019-01-10T12:39:27.956Z,3.60
2019-01-10T12:42:08.405Z,3.60
2019-01-10T12:44:49.241Z,3.50
2019-01-10T12:47:29.696Z,3.30
2019-01-10T12:50:10.751Z,3.30
2019-01-10T12:52:51.189Z,3.30
2019-01-10T12:55:31.851Z,3.40
2019-01-10T12:58:12.459Z,3.40
2019-01-10T13:00:53.445Z,3.50
2019-01-10T13:03:34.248Z,3.50
2019-01-10T13:06:14.897Z,3.50
2019-01-10T13:08:55.924Z,3.50
2019-01-10T13:11:37.210Z,3.50
2019-01-10T13:14:17.886Z,3.40
2019-01-10T13:16:58.970Z,3.40
2019-01-10T13:19:39.763Z,3.40
2019-01-10T13:22:20.980Z,3.40
2019-01-10T13:25:01.562Z,3.40
2019-01-10T13:27:40.795Z,3.30
2019-01-10T13:30:29.161Z,3.30
2019-01-10T13:33:17.360Z,3.20
2019-01-10T13:36:05.859Z,3.10
2019-01-10T13:38:54.157Z,3.10
2019-01-10T13:44:40.005Z,3.00
2019-01-10T13:47:28.261Z,3.00
2019-01-10T13:50:17.526Z,3.00
2019-01-10T13:53:26.239Z,3.00
2019-01-10T13:59:21.735Z,3.10
2019-01-10T14:05:03.618Z,3.10
2019-01-10T14:07:51.846Z,3.00
2019-01-10T14:10:40.180Z,2.90
2019-01-10T14:13:28.737Z,2.90
2019-01-10T14:19:04.697Z,2.80
2019-01-10T14:21:46.766Z,2.80
2019-01-10T14:24:27.499Z,2.80
2019-01-10T14:27:08.324Z,2.70
2019-01-10T14:29:48.723Z,2.60
2019-01-10T14:35:11.440Z,2.50
2019-01-10T14:37:40.594Z,2.50
2019-01-10T14:40:28.802Z,2.50
2019-01-10T14:43:16.975Z,2.50
2019-01-10T14:46:05.194Z,2.40
2019-01-10T14:48:37.262Z,2.40
2019-01-10T14:51:08.496Z,2.30
2019-01-10T14:53:56.701Z,2.30
2019-01-10T14:56:45.116Z,2.20
2019-01-10T14:59:33.261Z,2.20
2019-01-10T15:05:15.617Z,2.10
2019-01-10T15:07:44.752Z,2.10
2019-01-10T15:10:32.948Z,2.10
2019-01-10T15:19:15.070Z,2.00
2019-01-10T15:21:55.954Z,2.00
2019-01-10T15:24:36.639Z,2.00
2019-01-10T15:27:17.395Z,1.90
2019-01-10T15:29:58.317Z,1.90
2019-01-10T15:32:39.085Z,1.90
2019-01-10T15:35:09.758Z,1.80
2019-01-10T15:37:57.971Z,1.80
2019-01-10T15:40:46.179Z,1.80
2019-01-10T15:43:34.370Z,1.80
2019-01-10T15:46:23.548Z,1.70
2019-01-10T15:48:52.596Z,1.60
2019-01-10T15:51:40.777Z,1.60
2019-01-10T15:57:25.439Z,1.50
2019-01-10T15:59:56.704Z,1.50
2019-01-10T16:02:44.925Z,1.40
2019-01-10T16:05:15.315Z,1.40
2019-01-10T16:07:45.726Z,1.40
2019-01-10T16:10:34.188Z,1.40
2019-01-10T16:13:22.448Z,1.30
2019-01-10T16:19:04.401Z,1.30
2019-01-10T16:21:34.535Z,1.30
2019-01-10T16:24:15.385Z,1.30
2019-01-10T16:26:56.106Z,1.30
2019-01-10T16:29:26.473Z,1.30
2019-01-10T16:35:10.164Z,1.30
2019-01-10T16:38:00.148Z,1.30
2019-01-10T16:43:55.755Z,1.30
2019-01-10T16:46:43.904Z,1.30
2019-01-10T16:49:31.997Z,1.20
2019-01-10T16:52:20.161Z,1.20
2019-01-10T16:55:08.620Z,1.20
2019-01-10T16:57:56.803Z,1.20
2019-01-10T17:06:32.692Z,1.10
2019-01-10T17:09:21.103Z,1.10
2019-01-10T17:12:09.290Z,1.10
2019-01-10T17:14:57.471Z,1.10
2019-01-10T17:17:46.390Z,1.00
2019-01-10T17:20:35.648Z,1.00
2019-01-10T17:23:23.844Z,1.00
2019-01-10T17:26:12.032Z,1.10
2019-01-10T17:29:00.207Z,1.00
2019-01-10T17:34:42.125Z,1.10
2019-01-10T17:37:30.304Z,1.10
2019-01-10T17:39:59.369Z,1.10
2019-01-10T17:42:47.712Z,1.10
2019-01-10T17:45:36.706Z,1.10
2019-01-10T17:48:24.897Z,1.10
2019-01-10T17:51:13.056Z,1.10
2019-01-10T17:53:42.164Z,1.10
2019-01-10T17:56:30.316Z,1.10
2019-01-10T17:59:18.541Z,1.10
2019-01-10T18:02:06.697Z,1.10
2019-01-10T18:04:54.877Z,1.10
2019-01-10T18:07:43.074Z,1.10
2019-01-10T18:10:31.360Z,1.00
2019-01-10T18:13:19.574Z,1.00
2019-01-10T18:16:07.745Z,1.00
2019-01-10T18:18:55.905Z,1.00
2019-01-10T18:21:36.715Z,1.00
2019-01-10T18:24:17.874Z,1.00
2019-01-10T18:26:58.721Z,1.00
2019-01-10T18:29:40.576Z,1.00
2019-01-10T18:32:21.732Z,1.00
2019-01-10T18:35:02.611Z,1.00
2019-01-10T18:37:43.237Z,1.00
2019-01-10T18:40:13.336Z,1.00
2019-01-10T18:42:42.438Z,1.00
2019-01-10T18:45:31.616Z,1.00
2019-01-10T18:48:08.185Z,1.00
2019-01-10T18:50:56.344Z,1.00
2019-01-10T18:56:38.836Z,1.10
2019-01-10T18:59:26.998Z,1.10
2019-01-10T19:02:15.199Z,1.10
2019-01-10T19:05:03.571Z,1.10
2019-01-10T19:10:59.029Z,1.10
2019-01-10T19:16:54.493Z,1.10
2019-01-10T19:22:00.503Z,1.10
2019-01-10T19:24:41.301Z,1.00
2019-01-10T19:27:22.229Z,1.00
2019-01-10T19:30:02.921Z,1.00
2019-01-10T19:32:43.858Z,1.00
2019-01-10T19:35:24.287Z,1.00
2019-01-10T19:38:05.092Z,1.00
2019-01-10T19:40:48.874Z,1.10
2019-01-10T19:43:29.883Z,1.10
2019-01-10T19:46:10.831Z,1.10
2019-01-10T19:48:51.709Z,1.10
2019-01-10T19:51:32.666Z,1.10
2019-01-10T19:54:13.562Z,1.00
2019-01-10T19:56:54.854Z,1.10
2019-01-10T19:59:35.699Z,1.10
2019-01-10T20:02:16.497Z,1.10
2019-01-10T20:04:57.737Z,1.10
2019-01-10T20:07:38.756Z,1.10
2019-01-10T20:10:19.552Z,1.10
2019-01-10T20:13:00.597Z,1.10
2019-01-10T20:18:23.965Z,1.10
2019-01-10T20:20:53.099Z,1.10
2019-01-10T20:23:41.276Z,1.00
2019-01-10T20:26:29.476Z,1.00
2019-01-10T20:29:17.670Z,1.00
2019-01-10T20:32:05.855Z,1.00
2019-01-10T20:34:54.093Z,1.00
2019-01-10T20:37:42.404Z,1.00
2019-01-10T20:40:30.857Z,1.00
2019-01-10T20:43:19.029Z,1.00
2019-01-10T20:46:07.157Z,1.00
2019-01-10T20:48:55.427Z,1.00
2019-01-10T20:54:17.759Z,0.90
2019-01-10T20:56:46.903Z,0.90
2019-01-10T20:59:35.453Z,0.90
2019-01-10T21:02:05.112Z,0.90
2019-01-10T21:04:53.359Z,0.90
2019-01-10T21:07:44.098Z,0.90
2019-01-10T21:13:41.213Z,0.90
2019-01-10T21:16:29.375Z,0.90
2019-01-10T21:19:17.581Z,0.90
2019-01-10T21:21:57.980Z,0.90
2019-01-10T21:24:38.785Z,0.90
2019-01-10T21:27:07.909Z,0.90
2019-01-10T21:29:56.222Z,0.90
2019-01-10T21:32:44.663Z,0.90
2019-01-10T21:35:32.921Z,0.90
2019-01-10T21:38:21.279Z,0.90
2019-01-10T21:44:05.193Z,0.90
2019-01-10T21:46:53.656Z,0.90
2019-01-10T21:49:41.897Z,0.90
2019-01-10T21:52:30.146Z,0.90
2019-01-10T21:54:59.328Z,0.90
2019-01-10T21:57:47.780Z,0.90
2019-01-10T22:00:57.897Z,0.90
2019-01-10T22:03:46.404Z,0.90
2019-01-10T22:06:34.901Z,0.90
2019-01-10T22:09:24.609Z,0.90
2019-01-10T22:11:53.698Z,0.90
2019-01-10T22:14:41.871Z,0.90
2019-01-10T22:17:30.228Z,0.90
2019-01-10T22:20:18.842Z,0.90
2019-01-10T22:22:58.093Z,0.90
2019-01-10T22:25:38.776Z,0.90
2019-01-10T22:28:20.219Z,0.90
2019-01-10T22:31:00.741Z,0.90
2019-01-10T22:33:29.875Z,0.90
2019-01-10T22:36:18.138Z,0.90
2019-01-10T22:39:07.548Z,0.90
2019-01-10T22:41:55.830Z,0.90
2019-01-10T22:44:44.178Z,0.90
2019-01-10T22:47:32.377Z,0.90
2019-01-10T22:50:41.707Z,0.90
2019-01-10T23:01:56.732Z,1.10
2019-01-10T23:10:29.073Z,1.00
2019-01-10T23:13:17.325Z,1.00
2019-01-10T23:19:00.783Z,1.00
2019-01-10T23:21:48.976Z,1.00
2019-01-10T23:24:30.183Z,1.00
2019-01-10T23:27:11.473Z,1.00
2019-01-10T23:29:51.833Z,1.00
2019-01-10T23:32:32.670Z,1.00
2019-01-10T23:35:13.523Z,1.00
2019-01-10T23:37:56.131Z,1.00
2019-01-10T23:40:25.183Z,1.00
2019-01-10T23:43:13.483Z,1.00
2019-01-10T23:46:01.702Z,1.00
2019-01-10T23:48:49.899Z,1.00
2019-01-10T23:51:38.129Z,1.00
2019-01-10T23:54:26.411Z,1.00
2019-01-10T23:57:14.619Z,1.00
